sensor_id;sensor_type;location;lat;lon;timestamp;temperature;humidity
76211;DHT22;65003;49.518;11.280;2023-09-08T00:35:53;18.00;99.90
76211;DHT22;65003;49.518;11.280;2023-09-08T00:38:19;17.00;99.90
76211;DHT22;65003;49.518;11.280;2023-09-08T00:40:46;17.00;99.90
76211;DHT22;65003;49.518;11.280;2023-09-08T00:43:12;16.90;99.90
76211;DHT22;65003;49.518;11.280;2023-09-08T00:45:40;16.90;99.90
76211;DHT22;65003;49.518;11.280;2023-09-08T00:48:06;16.80;99.90
76211;DHT22;65003;49.518;11.280;2023-09-08T00:50:32;16.80;99.90
76211;DHT22;65003;49.518;11.280;2023-09-08T00:52:59;16.80;99.90
76211;DHT22;65003;49.518;11.280;2023-09-08T00:55:26;16.70;99.90
76211;DHT22;65003;49.518;11.280;2023-09-08T01:10:06;16.60;99.90
76211;DHT22;65003;49.518;11.280;2023-09-08T01:12:33;16.70;99.90
76211;DHT22;65003;49.518;11.280;2023-09-08T01:15:00;16.70;99.90
76211;DHT22;65003;49.518;11.280;2023-09-08T01:17:26;16.60;99.90
76211;DHT22;65003;49.518;11.280;2023-09-08T01:19:54;16.50;99.90
76211;DHT22;65003;49.518;11.280;2023-09-08T01:22:21;16.50;99.90
76211;DHT22;65003;49.518;11.280;2023-09-08T01:27:25;16.30;99.90
76211;DHT22;65003;49.518;11.280;2023-09-08T01:29:51;16.30;99.90
76211;DHT22;65003;49.518;11.280;2023-09-08T01:32:18;16.30;99.90
76211;DHT22;65003;49.518;11.280;2023-09-08T01:34:44;16.20;99.90
76211;DHT22;65003;49.518;11.280;2023-09-08T01:37:11;16.20;99.90
76211;DHT22;65003;49.518;11.280;2023-09-08T01:39:38;16.20;99.90
76211;DHT22;65003;49.518;11.280;2023-09-08T01:42:04;16.20;99.90
76211;DHT22;65003;49.518;11.280;2023-09-08T01:44:31;16.20;99.90
76211;DHT22;65003;49.518;11.280;2023-09-08T01:46:57;16.20;99.90
76211;DHT22;65003;49.518;11.280;2023-09-08T01:49:24;16.20;99.90
76211;DHT22;65003;49.518;11.280;2023-09-08T01:51:51;16.20;99.90
76211;DHT22;65003;49.518;11.280;2023-09-08T01:54:17;16.20;99.90
76211;DHT22;65003;49.518;11.280;2023-09-08T01:56:44;16.20;99.90
76211;DHT22;65003;49.518;11.280;2023-09-08T01:59:10;16.10;99.90
76211;DHT22;65003;49.518;11.280;2023-09-08T02:01:38;16.20;99.90
76211;DHT22;65003;49.518;11.280;2023-09-08T02:04:05;16.20;99.90
76211;DHT22;65003;49.518;11.280;2023-09-08T02:06:31;16.20;99.90
76211;DHT22;65003;49.518;11.280;2023-09-08T02:08:58;16.20;99.90
76211;DHT22;65003;49.518;11.280;2023-09-08T02:11:25;16.20;99.90
76211;DHT22;65003;49.518;11.280;2023-09-08T02:13:51;16.20;99.90
76211;DHT22;65003;49.518;11.280;2023-09-08T02:16:18;16.10;99.90
76211;DHT22;65003;49.518;11.280;2023-09-08T02:18:45;16.10;99.90
76211;DHT22;65003;49.518;11.280;2023-09-08T02:21:11;15.90;99.90
76211;DHT22;65003;49.518;11.280;2023-09-08T02:23:38;15.90;99.90
76211;DHT22;65003;49.518;11.280;2023-09-08T02:26:05;15.90;99.90
76211;DHT22;65003;49.518;11.280;2023-09-08T02:28:31;15.80;99.90
76211;DHT22;65003;49.518;11.280;2023-09-08T02:30:58;15.80;99.90
76211;DHT22;65003;49.518;11.280;2023-09-08T02:33:24;15.80;99.90
76211;DHT22;65003;49.518;11.280;2023-09-08T02:35:51;15.80;99.90
76211;DHT22;65003;49.518;11.280;2023-09-08T02:38:18;15.80;99.90
76211;DHT22;65003;49.518;11.280;2023-09-08T02:40:44;15.80;99.90
76211;DHT22;65003;49.518;11.280;2023-09-08T02:43:11;15.80;99.90
76211;DHT22;65003;49.518;11.280;2023-09-08T02:45:37;15.80;99.90
76211;DHT22;65003;49.518;11.280;2023-09-08T02:48:04;16.00;99.90
76211;DHT22;65003;49.518;11.280;2023-09-08T02:50:31;15.70;99.90
76211;DHT22;65003;49.518;11.280;2023-09-08T02:52:58;15.70;99.90
76211;DHT22;65003;49.518;11.280;2023-09-08T02:55:24;15.60;99.90
76211;DHT22;65003;49.518;11.280;2023-09-08T02:57:51;15.50;99.90
76211;DHT22;65003;49.518;11.280;2023-09-08T03:00:17;15.60;99.90
76211;DHT22;65003;49.518;11.280;2023-09-08T03:02:44;15.70;99.90
76211;DHT22;65003;49.518;11.280;2023-09-08T03:05:11;15.70;99.90
76211;DHT22;65003;49.518;11.280;2023-09-08T03:10:05;15.70;99.90
76211;DHT22;65003;49.518;11.280;2023-09-08T03:12:32;15.80;99.90
76211;DHT22;65003;49.518;11.280;2023-09-08T03:15:00;15.70;99.90
76211;DHT22;65003;49.518;11.280;2023-09-08T03:17:25;15.60;99.90
76211;DHT22;65003;49.518;11.280;2023-09-08T03:19:52;15.50;99.90
76211;DHT22;65003;49.518;11.280;2023-09-08T03:22:18;15.40;99.90
76211;DHT22;65003;49.518;11.280;2023-09-08T03:24:45;15.20;99.90
76211;DHT22;65003;49.518;11.280;2023-09-08T03:59:04;14.80;99.90
76211;DHT22;65003;49.518;11.280;2023-09-08T04:01:30;14.70;99.90
76211;DHT22;65003;49.518;11.280;2023-09-08T04:03:57;14.60;99.90
76211;DHT22;65003;49.518;11.280;2023-09-08T04:06:24;14.60;99.90
76211;DHT22;65003;49.518;11.280;2023-09-08T05:12:28;14.60;99.90
76211;DHT22;65003;49.518;11.280;2023-09-08T05:14:55;14.70;99.90
76211;DHT22;65003;49.518;11.280;2023-09-08T05:17:23;14.70;99.90
76211;DHT22;65003;49.518;11.280;2023-09-08T05:19:48;14.70;99.90
76211;DHT22;65003;49.518;11.280;2023-09-08T05:22:15;14.60;99.90
76211;DHT22;65003;49.518;11.280;2023-09-08T05:24:41;14.70;99.90
76211;DHT22;65003;49.518;11.280;2023-09-08T05:27:08;14.60;99.90
76211;DHT22;65003;49.518;11.280;2023-09-08T05:29:34;14.60;99.90
76211;DHT22;65003;49.518;11.280;2023-09-08T05:32:01;14.80;99.90
76211;DHT22;65003;49.518;11.280;2023-09-08T05:34:28;14.90;99.90
76211;DHT22;65003;49.518;11.280;2023-09-08T05:36:54;15.10;99.90
76211;DHT22;65003;49.518;11.280;2023-09-08T05:39:21;15.30;99.90
76211;DHT22;65003;49.518;11.280;2023-09-08T05:41:47;15.70;99.90
76211;DHT22;65003;49.518;11.280;2023-09-08T05:44:14;16.20;99.90
76211;DHT22;65003;49.518;11.280;2023-09-08T05:46:41;16.70;99.90
76211;DHT22;65003;49.518;11.280;2023-09-08T05:49:07;17.20;99.90
76211;DHT22;65003;49.518;11.280;2023-09-08T05:51:34;17.50;99.90
76211;DHT22;65003;49.518;11.280;2023-09-08T05:54:00;18.50;99.90
76211;DHT22;65003;49.518;11.280;2023-09-08T05:56:30;19.30;99.90
76211;DHT22;65003;49.518;11.280;2023-09-08T05:58:57;20.00;99.90
76211;DHT22;65003;49.518;11.280;2023-09-08T06:01:24;20.40;99.90
76211;DHT22;65003;49.518;11.280;2023-09-08T06:03:51;20.90;99.90
76211;DHT22;65003;49.518;11.280;2023-09-08T06:06:17;21.20;99.90
76211;DHT22;65003;49.518;11.280;2023-09-08T06:08:44;21.60;99.90
76211;DHT22;65003;49.518;11.280;2023-09-08T06:28:18;24.40;97.70
76211;DHT22;65003;49.518;11.280;2023-09-08T06:30:44;24.70;86.80
76211;DHT22;65003;49.518;11.280;2023-09-08T06:33:11;25.00;87.30
76211;DHT22;65003;49.518;11.280;2023-09-08T06:35:37;25.30;85.20
76211;DHT22;65003;49.518;11.280;2023-09-08T06:50:17;26.80;95.00
76211;DHT22;65003;49.518;11.280;2023-09-08T06:52:44;27.40;94.30
76211;DHT22;65003;49.518;11.280;2023-09-08T07:02:32;28.90;74.80
76211;DHT22;65003;49.518;11.280;2023-09-08T07:04:59;29.40;49.90
76211;DHT22;65003;49.518;11.280;2023-09-08T07:07:25;29.70;49.00
76211;DHT22;65003;49.518;11.280;2023-09-08T07:09:52;29.90;48.50
76211;DHT22;65003;49.518;11.280;2023-09-08T07:12:19;30.10;49.00
76211;DHT22;65003;49.518;11.280;2023-09-08T07:14:45;30.10;47.70
76211;DHT22;65003;49.518;11.280;2023-09-08T07:17:12;30.60;46.50
76211;DHT22;65003;49.518;11.280;2023-09-08T07:19:38;31.50;45.10
76211;DHT22;65003;49.518;11.280;2023-09-08T07:22:05;31.90;43.80
76211;DHT22;65003;49.518;11.280;2023-09-08T07:24:31;32.10;43.40
76211;DHT22;65003;49.518;11.280;2023-09-08T07:26:58;32.00;43.60
76211;DHT22;65003;49.518;11.280;2023-09-08T07:29:25;32.40;42.50
76211;DHT22;65003;49.518;11.280;2023-09-08T07:31:51;33.20;41.10
76211;DHT22;65003;49.518;11.280;2023-09-08T07:34:18;33.70;39.80
76211;DHT22;65003;49.518;11.280;2023-09-08T07:39:11;34.30;38.50
76211;DHT22;65003;49.518;11.280;2023-09-08T07:41:38;34.50;38.50
76211;DHT22;65003;49.518;11.280;2023-09-08T07:46:31;35.40;36.50
76211;DHT22;65003;49.518;11.280;2023-09-08T07:48:58;36.20;35.00
76211;DHT22;65003;49.518;11.280;2023-09-08T07:51:24;36.70;46.90
76211;DHT22;65003;49.518;11.280;2023-09-08T07:53:51;37.20;58.00
76211;DHT22;65003;49.518;11.280;2023-09-08T07:56:17;37.50;63.10
76211;DHT22;65003;49.518;11.280;2023-09-08T07:58:44;38.00;32.10
76211;DHT22;65003;49.518;11.280;2023-09-08T08:01:12;39.00;30.70
76211;DHT22;65003;49.518;11.280;2023-09-08T08:03:37;38.90;31.10
76211;DHT22;65003;49.518;11.280;2023-09-08T08:06:04;38.90;30.90
76211;DHT22;65003;49.518;11.280;2023-09-08T08:08:31;39.60;30.00
76211;DHT22;65003;49.518;11.280;2023-09-08T08:10:58;40.20;30.10
76211;DHT22;65003;49.518;11.280;2023-09-08T08:13:24;40.50;32.60
76211;DHT22;65003;49.518;11.280;2023-09-08T08:15:50;40.40;29.20
76211;DHT22;65003;49.518;11.280;2023-09-08T08:18:17;40.60;29.20
76211;DHT22;65003;49.518;11.280;2023-09-08T08:20:44;40.80;28.50
76211;DHT22;65003;49.518;11.280;2023-09-08T08:23:10;40.80;28.60
76211;DHT22;65003;49.518;11.280;2023-09-08T08:25:38;40.50;28.80
76211;DHT22;65003;49.518;11.280;2023-09-08T08:28:04;41.10;27.60
76211;DHT22;65003;49.518;11.280;2023-09-08T08:30:31;41.30;27.70
76211;DHT22;65003;49.518;11.280;2023-09-08T08:32:58;42.40;27.00
76211;DHT22;65003;49.518;11.280;2023-09-08T08:35:24;43.20;26.10
76211;DHT22;65003;49.518;11.280;2023-09-08T08:37:51;44.10;25.20
76211;DHT22;65003;49.518;11.280;2023-09-08T08:40:17;44.80;25.40
76211;DHT22;65003;49.518;11.280;2023-09-08T08:42:44;45.30;24.70
76211;DHT22;65003;49.518;11.280;2023-09-08T08:45:10;45.50;24.80
76211;DHT22;65003;49.518;11.280;2023-09-08T08:47:37;46.20;23.80
76211;DHT22;65003;49.518;11.280;2023-09-08T08:50:04;46.40;24.00
76211;DHT22;65003;49.518;11.280;2023-09-08T08:52:31;46.60;24.10
76211;DHT22;65003;49.518;11.280;2023-09-08T08:54:59;46.50;23.60
76211;DHT22;65003;49.518;11.280;2023-09-08T08:57:24;46.40;23.60
76211;DHT22;65003;49.518;11.280;2023-09-08T08:59:51;46.40;23.60
76211;DHT22;65003;49.518;11.280;2023-09-08T09:02:18;46.90;23.10
76211;DHT22;65003;49.518;11.280;2023-09-08T09:04:45;47.90;22.90
76211;DHT22;65003;49.518;11.280;2023-09-08T09:07:11;48.20;23.00
76211;DHT22;65003;49.518;11.280;2023-09-08T09:09:38;48.00;23.20
76211;DHT22;65003;49.518;11.280;2023-09-08T09:12:05;48.70;22.60
76211;DHT22;65003;49.518;11.280;2023-09-08T09:14:32;48.70;22.60
76211;DHT22;65003;49.518;11.280;2023-09-08T09:16:58;48.70;22.40
76211;DHT22;65003;49.518;11.280;2023-09-08T09:19:25;48.70;22.40
76211;DHT22;65003;49.518;11.280;2023-09-08T09:21:51;48.40;22.50
76211;DHT22;65003;49.518;11.280;2023-09-08T09:24:33;48.50;22.70
76211;DHT22;65003;49.518;11.280;2023-09-08T09:26:45;48.40;22.00
76211;DHT22;65003;49.518;11.280;2023-09-08T09:29:12;48.90;22.10
76211;DHT22;65003;49.518;11.280;2023-09-08T09:31:40;49.30;21.70
76211;DHT22;65003;49.518;11.280;2023-09-08T09:34:04;49.70;21.80
76211;DHT22;65003;49.518;11.280;2023-09-08T09:36:31;50.10;21.70
76211;DHT22;65003;49.518;11.280;2023-09-08T09:38:58;50.60;21.30
76211;DHT22;65003;49.518;11.280;2023-09-08T09:41:24;50.90;20.80
76211;DHT22;65003;49.518;11.280;2023-09-08T09:43:51;50.10;21.30
76211;DHT22;65003;49.518;11.280;2023-09-08T09:46:17;50.30;21.10
76211;DHT22;65003;49.518;11.280;2023-09-08T09:48:44;50.60;21.10
76211;DHT22;65003;49.518;11.280;2023-09-08T09:51:16;51.30;21.10
76211;DHT22;65003;49.518;11.280;2023-09-08T09:53:43;51.60;20.40
76211;DHT22;65003;49.518;11.280;2023-09-08T09:56:09;51.50;20.50
76211;DHT22;65003;49.518;11.280;2023-09-08T09:58:36;51.80;20.50
76211;DHT22;65003;49.518;11.280;2023-09-08T10:01:03;52.30;20.40
76211;DHT22;65003;49.518;11.280;2023-09-08T10:03:29;51.90;20.10
76211;DHT22;65003;49.518;11.280;2023-09-08T10:05:56;52.30;20.10
76211;DHT22;65003;49.518;11.280;2023-09-08T10:08:23;52.40;20.20
76211;DHT22;65003;49.518;11.280;2023-09-08T10:10:50;52.10;20.00
76211;DHT22;65003;49.518;11.280;2023-09-08T10:13:18;52.10;20.00
76211;DHT22;65003;49.518;11.280;2023-09-08T10:15:43;51.80;20.80
76211;DHT22;65003;49.518;11.280;2023-09-08T10:18:09;51.20;20.40
76211;DHT22;65003;49.518;11.280;2023-09-08T10:20:36;51.30;20.70
76211;DHT22;65003;49.518;11.280;2023-09-08T10:23:06;52.80;20.00
76211;DHT22;65003;49.518;11.280;2023-09-08T10:25:31;53.10;20.20
76211;DHT22;65003;49.518;11.280;2023-09-08T10:27:57;54.30;18.70
76211;DHT22;65003;49.518;11.280;2023-09-08T10:30:24;54.60;18.40
76211;DHT22;65003;49.518;11.280;2023-09-08T10:32:51;54.00;18.90
76211;DHT22;65003;49.518;11.280;2023-09-08T10:35:17;53.30;19.50
76211;DHT22;65003;49.518;11.280;2023-09-08T10:37:44;53.50;19.60
76211;DHT22;65003;49.518;11.280;2023-09-08T10:40:23;54.00;19.40
76211;DHT22;65003;49.518;11.280;2023-09-08T10:42:49;53.30;19.40
76211;DHT22;65003;49.518;11.280;2023-09-08T10:45:17;51.70;19.90
76211;DHT22;65003;49.518;11.280;2023-09-08T10:48:00;50.20;20.00
76211;DHT22;65003;49.518;11.280;2023-09-08T10:50:29;49.80;20.70
76211;DHT22;65003;49.518;11.280;2023-09-08T10:53:19;49.80;20.90
76211;DHT22;65003;49.518;11.280;2023-09-08T10:55:46;50.00;21.00
76211;DHT22;65003;49.518;11.280;2023-09-08T10:58:18;50.00;20.70
76211;DHT22;65003;49.518;11.280;2023-09-08T11:00:47;50.00;21.30
76211;DHT22;65003;49.518;11.280;2023-09-08T11:03:13;49.30;20.60
76211;DHT22;65003;49.518;11.280;2023-09-08T11:05:41;47.80;21.20
76211;DHT22;65003;49.518;11.280;2023-09-08T11:08:06;47.30;22.50
76211;DHT22;65003;49.518;11.280;2023-09-08T11:10:33;45.30;22.20
76211;DHT22;65003;49.518;11.280;2023-09-08T11:12:59;43.60;23.00
76211;DHT22;65003;49.518;11.280;2023-09-08T11:15:26;39.40;26.20
76211;DHT22;65003;49.518;11.280;2023-09-08T11:17:52;37.60;27.70
76211;DHT22;65003;49.518;11.280;2023-09-08T11:20:26;36.10;29.30
76211;DHT22;65003;49.518;11.280;2023-09-08T11:22:53;35.70;29.90
76211;DHT22;65003;49.518;11.280;2023-09-08T11:25:20;34.10;30.80
76211;DHT22;65003;49.518;11.280;2023-09-08T11:30:13;33.10;31.90
76211;DHT22;65003;49.518;11.280;2023-09-08T11:32:40;32.90;32.60
76211;DHT22;65003;49.518;11.280;2023-09-08T11:35:07;32.50;33.40
76211;DHT22;65003;49.518;11.280;2023-09-08T11:37:36;32.20;39.60
76211;DHT22;65003;49.518;11.280;2023-09-08T11:40:02;34.50;36.40
76211;DHT22;65003;49.518;11.280;2023-09-08T11:42:29;32.30;35.00
76211;DHT22;65003;49.518;11.280;2023-09-08T11:44:56;32.40;35.10
76211;DHT22;65003;49.518;11.280;2023-09-08T11:47:22;32.50;33.70
76211;DHT22;65003;49.518;11.280;2023-09-08T11:52:15;32.30;47.30
76211;DHT22;65003;49.518;11.280;2023-09-08T11:57:09;32.10;37.20
76211;DHT22;65003;49.518;11.280;2023-09-08T11:59:35;32.30;39.10
76211;DHT22;65003;49.518;11.280;2023-09-08T12:02:02;32.10;38.20
76211;DHT22;65003;49.518;11.280;2023-09-08T12:04:28;31.80;40.20
76211;DHT22;65003;49.518;11.280;2023-09-08T12:06:55;31.80;39.90
76211;DHT22;65003;49.518;11.280;2023-09-08T12:09:22;31.70;41.50
76211;DHT22;65003;49.518;11.280;2023-09-08T12:11:48;31.60;41.50
76211;DHT22;65003;49.518;11.280;2023-09-08T12:14:15;31.60;42.10
76211;DHT22;65003;49.518;11.280;2023-09-08T12:16:42;31.50;45.60
76211;DHT22;65003;49.518;11.280;2023-09-08T12:19:08;31.60;45.40
76211;DHT22;65003;49.518;11.280;2023-09-08T12:21:35;31.60;46.50
76211;DHT22;65003;49.518;11.280;2023-09-08T12:24:01;31.60;46.20
76211;DHT22;65003;49.518;11.280;2023-09-08T12:26:28;31.40;45.60
76211;DHT22;65003;49.518;11.280;2023-09-08T12:28:54;31.20;36.90
76211;DHT22;65003;49.518;11.280;2023-09-08T12:31:22;31.30;38.30
76211;DHT22;65003;49.518;11.280;2023-09-08T12:33:48;31.20;36.30
76211;DHT22;65003;49.518;11.280;2023-09-08T12:36:16;31.10;37.20
76211;DHT22;65003;49.518;11.280;2023-09-08T12:38:56;31.20;37.40
76211;DHT22;65003;49.518;11.280;2023-09-08T12:41:23;31.20;37.30
76211;DHT22;65003;49.518;11.280;2023-09-08T12:43:50;31.30;37.30
76211;DHT22;65003;49.518;11.280;2023-09-08T12:46:16;31.20;36.40
76211;DHT22;65003;49.518;11.280;2023-09-08T12:48:43;30.90;40.90
76211;DHT22;65003;49.518;11.280;2023-09-08T12:51:09;30.70;37.20
76211;DHT22;65003;49.518;11.280;2023-09-08T12:53:36;30.70;38.60
76211;DHT22;65003;49.518;11.280;2023-09-08T12:56:03;30.70;36.80
76211;DHT22;65003;49.518;11.280;2023-09-08T12:58:29;30.70;36.90
76211;DHT22;65003;49.518;11.280;2023-09-08T13:00:56;30.70;37.90
76211;DHT22;65003;49.518;11.280;2023-09-08T13:03:23;30.70;37.10
76211;DHT22;65003;49.518;11.280;2023-09-08T13:05:49;30.50;36.70
76211;DHT22;65003;49.518;11.280;2023-09-08T13:08:16;30.60;36.90
76211;DHT22;65003;49.518;11.280;2023-09-08T13:10:42;30.60;36.40
76211;DHT22;65003;49.518;11.280;2023-09-08T13:13:09;30.50;37.00
76211;DHT22;65003;49.518;11.280;2023-09-08T13:15:36;30.60;36.30
76211;DHT22;65003;49.518;11.280;2023-09-08T13:18:02;30.60;35.90
76211;DHT22;65003;49.518;11.280;2023-09-08T13:20:29;30.50;36.80
76211;DHT22;65003;49.518;11.280;2023-09-08T13:22:55;30.50;36.00
76211;DHT22;65003;49.518;11.280;2023-09-08T13:25:22;30.40;36.10
76211;DHT22;65003;49.518;11.280;2023-09-08T13:27:49;30.20;35.60
76211;DHT22;65003;49.518;11.280;2023-09-08T13:30:16;30.10;36.80
76211;DHT22;65003;49.518;11.280;2023-09-08T13:32:43;30.10;37.30
76211;DHT22;65003;49.518;11.280;2023-09-08T13:35:09;30.10;36.40
76211;DHT22;65003;49.518;11.280;2023-09-08T13:37:36;30.20;36.90
76211;DHT22;65003;49.518;11.280;2023-09-08T13:40:03;30.20;36.30
76211;DHT22;65003;49.518;11.280;2023-09-08T13:42:30;30.20;35.80
76211;DHT22;65003;49.518;11.280;2023-09-08T13:44:57;30.10;35.50
76211;DHT22;65003;49.518;11.280;2023-09-08T13:47:24;30.10;36.00
76211;DHT22;65003;49.518;11.280;2023-09-08T13:49:50;30.00;36.70
76211;DHT22;65003;49.518;11.280;2023-09-08T13:52:17;30.00;38.30
76211;DHT22;65003;49.518;11.280;2023-09-08T13:54:43;30.00;37.70
76211;DHT22;65003;49.518;11.280;2023-09-08T13:57:10;30.00;38.50
76211;DHT22;65003;49.518;11.280;2023-09-08T13:59:37;29.80;51.50
76211;DHT22;65003;49.518;11.280;2023-09-08T14:02:03;29.80;52.00
76211;DHT22;65003;49.518;11.280;2023-09-08T14:04:30;29.70;50.00
76211;DHT22;65003;49.518;11.280;2023-09-08T14:06:57;29.70;49.20
76211;DHT22;65003;49.518;11.280;2023-09-08T14:09:23;29.50;36.60
76211;DHT22;65003;49.518;11.280;2023-09-08T14:11:50;29.50;36.70
76211;DHT22;65003;49.518;11.280;2023-09-08T14:14:16;29.50;36.00
76211;DHT22;65003;49.518;11.280;2023-09-08T14:16:43;29.40;36.60
76211;DHT22;65003;49.518;11.280;2023-09-08T14:19:10;29.30;36.70
76211;DHT22;65003;49.518;11.280;2023-09-08T14:21:36;29.20;36.60
76211;DHT22;65003;49.518;11.280;2023-09-08T14:24:03;29.10;36.40
76211;DHT22;65003;49.518;11.280;2023-09-08T14:26:30;29.00;37.30
76211;DHT22;65003;49.518;11.280;2023-09-08T14:28:56;29.00;38.10
76211;DHT22;65003;49.518;11.280;2023-09-08T14:31:23;29.10;38.00
76211;DHT22;65003;49.518;11.280;2023-09-08T14:33:49;29.10;37.40
76211;DHT22;65003;49.518;11.280;2023-09-08T14:36:17;29.10;36.10
76211;DHT22;65003;49.518;11.280;2023-09-08T14:38:42;29.00;37.00
76211;DHT22;65003;49.518;11.280;2023-09-08T14:41:09;29.00;36.80
76211;DHT22;65003;49.518;11.280;2023-09-08T14:43:36;29.00;37.00
76211;DHT22;65003;49.518;11.280;2023-09-08T14:46:02;29.00;37.20
76211;DHT22;65003;49.518;11.280;2023-09-08T14:48:29;28.90;36.50
76211;DHT22;65003;49.518;11.280;2023-09-08T14:50:56;28.90;37.70
76211;DHT22;65003;49.518;11.280;2023-09-08T14:53:22;28.80;37.20
76211;DHT22;65003;49.518;11.280;2023-09-08T14:58:15;28.60;37.00
76211;DHT22;65003;49.518;11.280;2023-09-08T15:00:42;28.60;37.70
76211;DHT22;65003;49.518;11.280;2023-09-08T15:03:09;28.60;37.00
76211;DHT22;65003;49.518;11.280;2023-09-08T15:05:35;28.50;37.00
76211;DHT22;65003;49.518;11.280;2023-09-08T15:08:02;28.40;37.40
76211;DHT22;65003;49.518;11.280;2023-09-08T15:10:28;28.40;37.90
76211;DHT22;65003;49.518;11.280;2023-09-08T15:12:55;28.30;38.30
76211;DHT22;65003;49.518;11.280;2023-09-08T15:15:22;28.30;37.80
76211;DHT22;65003;49.518;11.280;2023-09-08T15:17:51;28.20;37.60
76211;DHT22;65003;49.518;11.280;2023-09-08T15:20:17;28.20;38.00
76211;DHT22;65003;49.518;11.280;2023-09-08T15:22:43;28.10;37.10
76211;DHT22;65003;49.518;11.280;2023-09-08T15:25:10;28.10;52.30
76211;DHT22;65003;49.518;11.280;2023-09-08T15:27:37;28.10;37.70
76211;DHT22;65003;49.518;11.280;2023-09-08T15:30:04;28.00;37.30
76211;DHT22;65003;49.518;11.280;2023-09-08T15:32:31;28.00;37.20
76211;DHT22;65003;49.518;11.280;2023-09-08T15:34:57;27.90;37.30
76211;DHT22;65003;49.518;11.280;2023-09-08T15:37:24;27.90;38.00
76211;DHT22;65003;49.518;11.280;2023-09-08T15:39:51;27.90;38.40
76211;DHT22;65003;49.518;11.280;2023-09-08T15:42:17;27.80;38.60
76211;DHT22;65003;49.518;11.280;2023-09-08T15:44:44;27.80;39.10
76211;DHT22;65003;49.518;11.280;2023-09-08T15:47:10;27.70;39.40
76211;DHT22;65003;49.518;11.280;2023-09-08T15:49:38;27.70;39.00
76211;DHT22;65003;49.518;11.280;2023-09-08T15:52:05;27.70;39.40
76211;DHT22;65003;49.518;11.280;2023-09-08T15:54:31;27.70;39.20
76211;DHT22;65003;49.518;11.280;2023-09-08T15:56:58;27.60;39.40
76211;DHT22;65003;49.518;11.280;2023-09-08T15:59:24;27.50;39.30
76211;DHT22;65003;49.518;11.280;2023-09-08T16:01:51;27.50;40.30
76211;DHT22;65003;49.518;11.280;2023-09-08T16:04:18;27.50;40.50
76211;DHT22;65003;49.518;11.280;2023-09-08T16:06:44;27.40;41.00
76211;DHT22;65003;49.518;11.280;2023-09-08T16:09:11;27.40;41.10
76211;DHT22;65003;49.518;11.280;2023-09-08T16:11:37;27.30;42.10
76211;DHT22;65003;49.518;11.280;2023-09-08T16:14:04;27.20;41.50
76211;DHT22;65003;49.518;11.280;2023-09-08T16:16:31;27.20;41.80
76211;DHT22;65003;49.518;11.280;2023-09-08T16:18:58;27.20;42.10
76211;DHT22;65003;49.518;11.280;2023-09-08T16:21:25;27.10;42.70
76211;DHT22;65003;49.518;11.280;2023-09-08T16:23:51;27.00;42.70
76211;DHT22;65003;49.518;11.280;2023-09-08T16:26:18;26.90;42.40
76211;DHT22;65003;49.518;11.280;2023-09-08T16:28:45;26.90;43.20
76211;DHT22;65003;49.518;11.280;2023-09-08T16:31:11;26.90;42.70
76211;DHT22;65003;49.518;11.280;2023-09-08T16:33:38;26.80;42.90
76211;DHT22;65003;49.518;11.280;2023-09-08T16:36:05;26.70;43.00
76211;DHT22;65003;49.518;11.280;2023-09-08T16:38:31;26.70;43.80
76211;DHT22;65003;49.518;11.280;2023-09-08T16:40:58;26.60;43.30
76211;DHT22;65003;49.518;11.280;2023-09-08T16:43:24;26.50;43.80
76211;DHT22;65003;49.518;11.280;2023-09-08T16:45:51;26.50;44.10
76211;DHT22;65003;49.518;11.280;2023-09-08T16:50:44;26.40;43.70
76211;DHT22;65003;49.518;11.280;2023-09-08T16:53:11;26.30;45.00
76211;DHT22;65003;49.518;11.280;2023-09-08T16:55:38;26.20;46.30
76211;DHT22;65003;49.518;11.280;2023-09-08T16:58:05;26.10;47.90
76211;DHT22;65003;49.518;11.280;2023-09-08T17:00:31;26.10;48.50
76211;DHT22;65003;49.518;11.280;2023-09-08T17:05:24;25.90;49.50
76211;DHT22;65003;49.518;11.280;2023-09-08T17:07:51;25.80;50.20
76211;DHT22;65003;49.518;11.280;2023-09-08T17:10:18;25.80;50.60
76211;DHT22;65003;49.518;11.280;2023-09-08T17:12:44;25.70;50.20
76211;DHT22;65003;49.518;11.280;2023-09-08T17:15:11;25.60;50.30
76211;DHT22;65003;49.518;11.280;2023-09-08T17:17:38;25.60;51.90
76211;DHT22;65003;49.518;11.280;2023-09-08T17:20:06;25.40;52.90
76211;DHT22;65003;49.518;11.280;2023-09-08T17:22:32;25.40;53.10
76211;DHT22;65003;49.518;11.280;2023-09-08T17:24:59;25.30;53.80
76211;DHT22;65003;49.518;11.280;2023-09-08T17:27:26;25.20;54.20
76211;DHT22;65003;49.518;11.280;2023-09-08T17:29:52;25.10;55.50
76211;DHT22;65003;49.518;11.280;2023-09-08T17:32:19;24.90;57.00
76211;DHT22;65003;49.518;11.280;2023-09-08T17:34:45;24.80;57.80
76211;DHT22;65003;49.518;11.280;2023-09-08T17:37:12;24.70;64.70
76211;DHT22;65003;49.518;11.280;2023-09-08T17:39:39;24.40;60.30
76211;DHT22;65003;49.518;11.280;2023-09-08T17:42:05;24.30;60.80
76211;DHT22;65003;49.518;11.280;2023-09-08T17:44:32;24.10;61.00
76211;DHT22;65003;49.518;11.280;2023-09-08T17:46:59;23.90;85.70
76211;DHT22;65003;49.518;11.280;2023-09-08T17:49:25;23.70;70.00
76211;DHT22;65003;49.518;11.280;2023-09-08T17:56:45;22.90;65.70
76211;DHT22;65003;49.518;11.280;2023-09-08T17:59:12;23.00;66.60
76211;DHT22;65003;49.518;11.280;2023-09-08T18:04:06;22.80;65.80
76211;DHT22;65003;49.518;11.280;2023-09-08T18:06:33;22.70;66.70
76211;DHT22;65003;49.518;11.280;2023-09-08T18:08:59;22.70;65.50
76211;DHT22;65003;49.518;11.280;2023-09-08T18:11:26;22.60;66.60
76211;DHT22;65003;49.518;11.280;2023-09-08T18:13:52;22.50;66.70
76211;DHT22;65003;49.518;11.280;2023-09-08T18:16:19;22.40;67.50
76211;DHT22;65003;49.518;11.280;2023-09-08T18:18:46;22.40;67.50
76211;DHT22;65003;49.518;11.280;2023-09-08T18:21:12;22.20;69.00
76211;DHT22;65003;49.518;11.280;2023-09-08T18:23:39;22.10;69.30
76211;DHT22;65003;49.518;11.280;2023-09-08T18:26:06;22.00;70.90
76211;DHT22;65003;49.518;11.280;2023-09-08T18:28:33;21.90;72.20
76211;DHT22;65003;49.518;11.280;2023-09-08T18:31:00;21.80;73.30
76211;DHT22;65003;49.518;11.280;2023-09-08T18:33:26;21.70;73.80
76211;DHT22;65003;49.518;11.280;2023-09-08T18:35:53;21.70;74.70
76211;DHT22;65003;49.518;11.280;2023-09-08T18:38:20;21.50;76.10
76211;DHT22;65003;49.518;11.280;2023-09-08T18:40:46;21.50;77.00
76211;DHT22;65003;49.518;11.280;2023-09-08T18:43:13;21.30;78.40